createdAt,value
2018-07-21T00:00:10.916Z,7.90
2018-07-21T00:01:17.327Z,8.10
2018-07-21T00:02:24.151Z,7.70
2018-07-21T00:03:30.895Z,7.90
2018-07-21T00:04:37.990Z,8.00
2018-07-21T00:05:44.841Z,8.00
2018-07-21T00:06:51.898Z,8.60
2018-07-21T00:07:58.643Z,7.80
2018-07-21T00:09:05.403Z,8.00
2018-07-21T00:10:12.211Z,8.00
2018-07-21T00:11:19.074Z,8.20
2018-07-21T00:12:25.837Z,7.80
2018-07-21T00:13:32.610Z,7.80
2018-07-21T00:14:39.358Z,7.80
2018-07-21T00:15:46.235Z,8.50
2018-07-21T00:16:52.989Z,7.50
2018-07-21T00:17:59.747Z,7.60
2018-07-21T00:19:06.883Z,7.30
2018-07-21T00:20:13.786Z,7.80
2018-07-21T00:21:20.520Z,7.30
2018-07-21T00:22:27.322Z,8.20
2018-07-21T00:23:34.074Z,7.50
2018-07-21T00:24:40.853Z,7.90
2018-07-21T00:25:47.593Z,7.60
2018-07-21T00:26:54.370Z,7.50
2018-07-21T00:28:01.140Z,8.10
2018-07-21T00:29:07.994Z,8.70
2018-07-21T00:30:14.747Z,8.30
2018-07-21T00:31:21.526Z,8.20
2018-07-21T00:32:28.258Z,8.30
2018-07-21T00:33:35.110Z,7.70
2018-07-21T00:34:41.867Z,7.90
2018-07-21T00:35:48.635Z,8.10
2018-07-21T00:36:55.374Z,7.60
2018-07-21T00:38:02.188Z,8.20
2018-07-21T00:39:08.953Z,8.40
2018-07-21T00:40:15.760Z,8.20
2018-07-21T00:41:22.630Z,7.90
2018-07-21T00:42:29.369Z,7.20
2018-07-21T00:43:36.126Z,8.10
2018-07-21T00:44:42.864Z,7.80
2018-07-21T00:45:49.720Z,7.20
2018-07-21T00:46:56.476Z,7.90
2018-07-21T00:48:03.221Z,7.80
2018-07-21T00:49:10.255Z,7.80
2018-07-21T00:50:17.031Z,8.10
2018-07-21T00:51:23.782Z,8.00
2018-07-21T00:52:30.575Z,8.00
2018-07-21T00:53:37.289Z,7.50
2018-07-21T00:54:44.038Z,7.70
2018-07-21T00:55:50.826Z,6.90
2018-07-21T00:56:57.678Z,7.90
2018-07-21T00:58:04.414Z,8.30
2018-07-21T00:59:11.190Z,8.10
2018-07-21T01:00:17.922Z,7.80
2018-07-21T01:01:24.770Z,7.70
2018-07-21T01:02:31.641Z,8.10
2018-07-21T01:03:38.399Z,8.00
2018-07-21T01:04:45.280Z,7.80
2018-07-21T01:05:52.091Z,8.20
2018-07-21T01:06:59.178Z,8.10
2018-07-21T01:08:05.918Z,7.90
2018-07-21T01:09:12.663Z,7.60
2018-07-21T01:10:19.454Z,7.00
2018-07-21T01:11:26.218Z,7.30
2018-07-21T01:12:32.989Z,8.40
2018-07-21T01:13:39.741Z,7.10
2018-07-21T01:14:46.514Z,8.30
2018-07-21T01:15:53.334Z,7.20
2018-07-21T01:17:00.090Z,7.60
2018-07-21T01:18:06.944Z,7.70
2018-07-21T01:19:13.699Z,6.90
2018-07-21T01:20:20.619Z,7.50
2018-07-21T01:21:27.406Z,7.50
2018-07-21T01:22:34.214Z,8.00
2018-07-21T01:23:40.989Z,7.60
2018-07-21T01:24:47.722Z,7.50
2018-07-21T01:25:54.581Z,7.80
2018-07-21T01:27:01.332Z,7.00
2018-07-21T01:28:08.200Z,7.10
2018-07-21T01:29:14.958Z,7.80
2018-07-21T01:30:21.787Z,8.00
2018-07-21T01:31:28.574Z,8.00
2018-07-21T01:32:35.422Z,7.40
2018-07-21T01:33:42.181Z,7.50
2018-07-21T01:34:48.926Z,7.40
2018-07-21T01:35:55.679Z,8.30
2018-07-21T01:37:02.518Z,7.40
2018-07-21T01:38:09.286Z,7.60
2018-07-21T01:39:16.025Z,7.50
2018-07-21T01:40:22.901Z,7.80
2018-07-21T01:41:29.667Z,7.50
2018-07-21T01:42:36.414Z,7.50
2018-07-21T01:43:43.182Z,7.80
2018-07-21T01:44:49.926Z,8.40
2018-07-21T01:45:56.779Z,7.20
2018-07-21T01:47:03.876Z,7.50
2018-07-21T01:48:10.667Z,7.50
2018-07-21T01:49:17.410Z,7.70
2018-07-21T01:50:24.198Z,7.20
2018-07-21T01:51:31.019Z,7.80
2018-07-21T01:52:37.805Z,7.10
2018-07-21T01:53:44.557Z,6.90
2018-07-21T01:54:51.468Z,7.30
2018-07-21T01:55:58.234Z,7.50
2018-07-21T01:57:05.339Z,7.80
2018-07-21T01:58:12.125Z,7.10
2018-07-21T01:59:18.883Z,7.40
2018-07-21T02:00:25.763Z,7.50
2018-07-21T02:01:32.569Z,6.80
2018-07-21T02:02:39.582Z,7.00
2018-07-21T02:03:46.342Z,6.80
2018-07-21T02:04:53.510Z,8.00
2018-07-21T02:06:00.310Z,7.70
2018-07-21T02:07:07.137Z,7.00
2018-07-21T02:08:13.893Z,6.60
2018-07-21T02:09:20.658Z,7.40
2018-07-21T02:10:27.394Z,7.10
2018-07-21T02:11:34.271Z,7.60
2018-07-21T02:12:41.057Z,6.70
2018-07-21T02:13:47.835Z,7.80
2018-07-21T02:14:54.575Z,7.50
2018-07-21T02:16:01.398Z,7.10
2018-07-21T02:17:08.298Z,7.70
2018-07-21T02:18:15.030Z,6.80
2018-07-21T02:19:21.901Z,7.80
2018-07-21T02:20:28.643Z,7.40
2018-07-21T02:21:35.597Z,8.20
2018-07-21T02:22:42.378Z,8.30
2018-07-21T02:23:49.436Z,7.80
2018-07-21T02:24:56.178Z,7.70
2018-07-21T02:26:02.978Z,7.10
2018-07-21T02:27:09.803Z,8.30
2018-07-21T02:28:16.533Z,8.00
2018-07-21T02:29:23.287Z,7.30
2018-07-21T02:30:30.047Z,8.20
2018-07-21T02:31:36.894Z,7.80
2018-07-21T02:32:43.647Z,7.70
2018-07-21T02:33:50.398Z,7.60
2018-07-21T02:34:57.158Z,7.90
2018-07-21T02:36:03.975Z,7.80
2018-07-21T02:37:10.730Z,7.30
2018-07-21T02:38:17.489Z,7.20
2018-07-21T02:39:24.269Z,8.30
2018-07-21T02:40:31.065Z,7.80
2018-07-21T02:41:37.838Z,7.30
2018-07-21T02:42:44.642Z,7.80
2018-07-21T02:43:51.493Z,8.20
2018-07-21T02:44:58.265Z,7.60
2018-07-21T02:46:05.023Z,7.40
2018-07-21T02:47:11.806Z,7.90
2018-07-21T02:48:18.607Z,7.40
2018-07-21T02:49:25.373Z,7.80
2018-07-21T02:50:32.147Z,7.30
2018-07-21T02:51:38.901Z,7.80
2018-07-21T02:52:45.711Z,7.40
2018-07-21T02:53:52.470Z,7.40
2018-07-21T02:54:59.214Z,8.20
2018-07-21T02:56:05.996Z,7.40
2018-07-21T02:57:12.841Z,7.40
2018-07-21T02:58:19.588Z,7.10
2018-07-21T02:59:26.369Z,7.90
2018-07-21T03:00:33.271Z,7.80
2018-07-21T03:01:40.027Z,8.30
2018-07-21T03:02:46.798Z,6.80
2018-07-21T03:03:53.576Z,8.90
2018-07-21T03:05:00.376Z,7.90
2018-07-21T03:06:07.238Z,7.90
2018-07-21T03:07:13.978Z,8.70
2018-07-21T03:08:22.910Z,7.10
2018-07-21T03:09:27.670Z,8.20
2018-07-21T03:10:34.455Z,8.00
2018-07-21T03:11:41.255Z,7.60
2018-07-21T03:12:48.002Z,8.10
2018-07-21T03:13:54.851Z,7.80
2018-07-21T03:15:01.643Z,7.40
2018-07-21T03:16:08.536Z,8.00
2018-07-21T03:17:15.311Z,8.30
2018-07-21T03:18:22.100Z,7.90
2018-07-21T03:19:28.846Z,7.90
2018-07-21T03:20:35.610Z,7.80
2018-07-21T03:21:42.382Z,8.20
2018-07-21T03:22:49.166Z,8.20
2018-07-21T03:23:55.995Z,7.80
2018-07-21T03:25:02.767Z,7.40
2018-07-21T03:26:09.650Z,7.50
2018-07-21T03:27:16.778Z,7.80
2018-07-21T03:28:23.515Z,8.40
2018-07-21T03:29:30.282Z,8.70
2018-07-21T03:30:37.068Z,8.60
2018-07-21T03:31:43.892Z,7.90
2018-07-21T03:32:50.890Z,7.90
2018-07-21T03:33:57.670Z,7.50
2018-07-21T03:35:04.413Z,8.20
2018-07-21T03:36:11.204Z,8.40
2018-07-21T03:37:17.954Z,8.40
2018-07-21T03:38:24.761Z,8.30
2018-07-21T03:39:31.514Z,9.10
2018-07-21T03:40:38.322Z,7.40
2018-07-21T03:41:45.035Z,8.10
2018-07-21T03:42:51.863Z,7.90
2018-07-21T03:43:58.612Z,7.90
2018-07-21T03:45:05.377Z,7.80
2018-07-21T03:46:12.130Z,8.10
2018-07-21T03:47:18.947Z,8.80
2018-07-21T03:48:25.702Z,8.20
2018-07-21T03:49:32.435Z,7.30
2018-07-21T03:50:39.205Z,8.40
2018-07-21T03:51:45.958Z,8.70
2018-07-21T03:52:52.733Z,7.40
2018-07-21T03:53:59.494Z,8.20
2018-07-21T03:55:06.267Z,7.60
2018-07-21T03:56:13.014Z,7.50
2018-07-21T03:57:19.881Z,9.00
2018-07-21T03:58:26.614Z,9.10
2018-07-21T03:59:33.361Z,8.90
2018-07-21T04:00:40.152Z,7.60
2018-07-21T04:01:47.003Z,8.30
2018-07-21T04:02:53.807Z,7.70
2018-07-21T04:04:00.621Z,7.70
2018-07-21T04:05:07.490Z,7.80
2018-07-21T04:06:14.278Z,8.70
2018-07-21T04:07:21.062Z,8.20
2018-07-21T04:08:27.801Z,7.80
2018-07-21T04:09:34.594Z,8.00
2018-07-21T04:10:41.335Z,8.20
2018-07-21T04:11:48.153Z,7.50
2018-07-21T04:12:54.904Z,7.90
2018-07-21T04:14:01.721Z,7.10
2018-07-21T04:15:08.617Z,7.90
2018-07-21T04:16:15.359Z,7.70
2018-07-21T04:17:22.173Z,7.80
2018-07-21T04:18:29.111Z,8.50
2018-07-21T04:19:35.938Z,8.30
2018-07-21T04:20:42.677Z,8.60
2018-07-21T04:21:49.462Z,7.70
2018-07-21T04:22:56.216Z,7.80
2018-07-21T04:24:03.063Z,8.20
2018-07-21T04:25:09.956Z,8.10
2018-07-21T04:26:16.795Z,8.00
2018-07-21T04:27:23.573Z,8.30
2018-07-21T04:28:30.330Z,7.50
2018-07-21T04:29:37.081Z,8.00
2018-07-21T04:30:43.902Z,8.10
2018-07-21T04:31:50.774Z,7.30
2018-07-21T04:32:57.517Z,8.10
2018-07-21T04:34:04.327Z,7.90
2018-07-21T04:35:11.386Z,7.40
2018-07-21T04:36:18.142Z,8.50
2018-07-21T04:37:24.913Z,8.10
2018-07-21T04:38:31.704Z,7.20
2018-07-21T04:39:38.586Z,8.00
2018-07-21T04:40:45.314Z,8.00
2018-07-21T04:41:52.087Z,7.80
2018-07-21T04:42:58.866Z,8.30
2018-07-21T04:44:05.662Z,8.50
2018-07-21T04:45:12.590Z,7.40
2018-07-21T04:46:19.433Z,8.10
2018-07-21T04:47:26.210Z,8.20
2018-07-21T04:48:32.961Z,8.90
2018-07-21T04:49:39.714Z,8.00
2018-07-21T04:50:46.490Z,7.70
2018-07-21T04:51:53.333Z,8.20
2018-07-21T04:53:00.122Z,8.40
2018-07-21T04:54:06.931Z,9.10
2018-07-21T04:55:13.704Z,8.30
2018-07-21T04:56:20.458Z,9.50
2018-07-21T04:57:27.219Z,9.20
2018-07-21T04:58:34.038Z,10.30
2018-07-21T04:59:40.805Z,9.30
2018-07-21T05:00:47.672Z,9.50
2018-07-21T05:01:54.350Z,9.20
2018-07-21T05:03:01.151Z,8.90
2018-07-21T05:04:07.969Z,8.60
2018-07-21T05:05:14.978Z,8.50
2018-07-21T05:06:21.718Z,8.40
2018-07-21T05:07:28.576Z,9.40
2018-07-21T05:08:35.403Z,9.40
2018-07-21T05:09:42.159Z,9.30
2018-07-21T05:10:49.190Z,9.70
2018-07-21T05:11:55.935Z,9.30
2018-07-21T05:13:02.722Z,9.10
2018-07-21T05:14:09.650Z,9.50
2018-07-21T05:15:16.418Z,9.60
2018-07-21T05:16:23.174Z,9.10
2018-07-21T05:17:30.096Z,9.30
2018-07-21T05:18:36.861Z,9.80
2018-07-21T05:19:43.617Z,9.10
2018-07-21T05:20:50.375Z,10.00
2018-07-21T05:21:57.198Z,10.20
2018-07-21T05:23:04.012Z,10.10
2018-07-21T05:24:10.762Z,10.00
2018-07-21T05:25:17.505Z,9.80
2018-07-21T05:26:24.281Z,11.20
2018-07-21T05:27:31.041Z,9.30
2018-07-21T05:28:37.818Z,9.70
2018-07-21T05:29:44.563Z,10.40
2018-07-21T05:30:51.361Z,9.40
2018-07-21T05:31:58.122Z,10.00
2018-07-21T05:33:04.924Z,10.00
2018-07-21T05:34:11.807Z,9.30
2018-07-21T05:35:18.554Z,10.30
2018-07-21T05:36:25.314Z,9.90
2018-07-21T05:37:32.071Z,10.20
2018-07-21T05:38:38.889Z,10.20
2018-07-21T05:39:45.638Z,9.70
2018-07-21T05:40:52.379Z,10.10
2018-07-21T05:41:59.130Z,9.90
2018-07-21T05:43:05.978Z,10.40
2018-07-21T05:44:12.786Z,10.30
2018-07-21T05:45:19.570Z,10.20
2018-07-21T05:46:26.410Z,10.60
2018-07-21T05:47:33.182Z,9.80
2018-07-21T05:48:40.218Z,10.60
2018-07-21T05:49:46.965Z,9.90
2018-07-21T05:50:53.724Z,10.40
2018-07-21T05:52:00.640Z,10.70
2018-07-21T05:53:07.542Z,9.70
2018-07-21T05:54:14.262Z,9.70
2018-07-21T05:55:21.058Z,10.20
2018-07-21T05:56:27.922Z,9.60
2018-07-21T05:57:34.859Z,9.70
2018-07-21T05:58:41.638Z,10.00
2018-07-21T05:59:48.489Z,10.30
2018-07-21T06:00:55.350Z,10.50
2018-07-21T06:02:02.134Z,9.60
2018-07-21T06:03:09.189Z,10.90
2018-07-21T06:04:16.030Z,10.20
2018-07-21T06:05:22.866Z,8.80
2018-07-21T06:06:29.620Z,9.70
2018-07-21T06:07:36.394Z,11.40
2018-07-21T06:08:43.210Z,11.80
2018-07-21T06:09:49.986Z,10.20
2018-07-21T06:10:56.780Z,10.00
2018-07-21T06:12:03.523Z,12.80
2018-07-21T06:13:10.423Z,10.90
2018-07-21T06:14:17.256Z,12.70
2018-07-21T06:15:24.012Z,14.20
2018-07-21T06:16:30.874Z,13.50
2018-07-21T06:17:37.714Z,13.80
2018-07-21T06:18:44.559Z,11.90
2018-07-21T06:19:51.338Z,11.10
2018-07-21T06:20:58.114Z,12.00
2018-07-21T06:22:04.943Z,11.60
2018-07-21T06:23:11.775Z,10.50
2018-07-21T06:24:18.580Z,10.80
2018-07-21T06:25:25.354Z,11.10
2018-07-21T06:26:32.214Z,10.80
2018-07-21T06:27:38.998Z,9.40
2018-07-21T06:28:45.876Z,10.50
2018-07-21T06:29:52.674Z,9.70
2018-07-21T06:30:59.434Z,9.80
2018-07-21T06:32:06.178Z,9.60
2018-07-21T06:33:13.131Z,9.50
2018-07-21T06:34:19.923Z,10.80
2018-07-21T06:35:26.738Z,9.80
2018-07-21T06:36:33.588Z,10.40
2018-07-21T06:37:40.348Z,9.60
2018-07-21T06:38:47.407Z,9.30
2018-07-21T06:39:54.154Z,9.80
2018-07-21T06:41:00.979Z,10.70
2018-07-21T06:42:07.822Z,9.90
2018-07-21T06:43:14.604Z,10.30
2018-07-21T06:44:21.408Z,9.30
2018-07-21T06:45:28.242Z,11.20
2018-07-21T06:46:35.018Z,9.90
2018-07-21T06:47:41.819Z,10.00
2018-07-21T06:48:48.682Z,10.70
2018-07-21T06:49:55.474Z,11.50
2018-07-21T06:51:02.238Z,11.60
2018-07-21T06:52:09.090Z,10.90
2018-07-21T06:53:15.855Z,10.60
2018-07-21T06:54:22.710Z,9.90
2018-07-21T06:55:29.546Z,9.80
2018-07-21T06:56:36.356Z,10.60
2018-07-21T06:57:43.088Z,10.10
2018-07-21T06:58:50.166Z,10.40
2018-07-21T06:59:33.627Z,11.10
2018-07-21T07:00:40.383Z,10.70
2018-07-21T07:01:47.214Z,12.30
2018-07-21T07:02:54.001Z,10.50
2018-07-21T07:04:00.778Z,10.30
2018-07-21T07:05:07.780Z,10.50
2018-07-21T07:06:14.586Z,11.70
2018-07-21T07:07:21.337Z,10.30
2018-07-21T07:08:28.094Z,10.60
2018-07-21T07:09:34.867Z,10.30
2018-07-21T07:10:41.597Z,11.30
2018-07-21T07:11:48.360Z,11.50
2018-07-21T07:12:55.110Z,10.20
2018-07-21T07:14:01.962Z,11.10
2018-07-21T07:15:10.031Z,12.20
2018-07-21T07:16:15.802Z,11.70
2018-07-21T07:17:22.695Z,11.40
2018-07-21T07:18:29.579Z,11.10
2018-07-21T07:19:36.482Z,11.00
2018-07-21T07:20:43.307Z,10.20
2018-07-21T07:21:50.078Z,10.90
2018-07-21T07:22:56.818Z,11.10
2018-07-21T07:24:03.622Z,11.00
2018-07-21T07:25:10.379Z,10.50
2018-07-21T07:26:17.211Z,11.00
2018-07-21T07:27:24.370Z,10.80
2018-07-21T07:28:31.106Z,10.60
2018-07-21T07:29:37.985Z,10.60
2018-07-21T07:30:44.790Z,10.50
2018-07-21T07:31:51.622Z,11.00
2018-07-21T07:32:58.410Z,10.10
2018-07-21T07:34:05.395Z,10.40
2018-07-21T07:35:12.256Z,11.30
2018-07-21T07:36:19.019Z,10.70
2018-07-21T07:37:25.781Z,11.00
2018-07-21T07:38:32.666Z,10.00
2018-07-21T07:39:39.454Z,9.70
2018-07-21T07:40:46.211Z,11.40
2018-07-21T07:41:53.086Z,11.80
2018-07-21T07:42:59.857Z,11.40
2018-07-21T07:44:06.623Z,10.70
2018-07-21T07:45:13.537Z,10.90
2018-07-21T07:46:20.317Z,10.80
2018-07-21T07:47:27.091Z,11.00
2018-07-21T07:48:33.972Z,11.60
2018-07-21T07:49:40.756Z,11.20
2018-07-21T07:50:47.558Z,13.00
2018-07-21T07:51:54.406Z,11.80
2018-07-21T07:53:01.205Z,12.00
2018-07-21T07:54:08.027Z,12.80
2018-07-21T07:55:14.836Z,12.30
2018-07-21T07:56:21.627Z,13.40
2018-07-21T07:57:28.374Z,12.00
2018-07-21T07:58:35.114Z,12.20
2018-07-21T07:59:41.936Z,12.30
2018-07-21T08:00:48.663Z,12.00
2018-07-21T08:01:55.427Z,11.40
2018-07-21T08:03:02.197Z,12.00
2018-07-21T08:04:09.152Z,10.60
2018-07-21T08:05:16.008Z,11.00
2018-07-21T08:06:22.788Z,12.50
2018-07-21T08:07:29.622Z,12.00
2018-07-21T08:08:36.411Z,11.70
2018-07-21T08:09:43.196Z,12.20
2018-07-21T08:10:49.938Z,12.30
2018-07-21T08:11:56.724Z,11.50
2018-07-21T08:13:03.504Z,11.80
2018-07-21T08:14:10.314Z,11.20
2018-07-21T08:15:17.056Z,11.50
2018-07-21T08:16:24.183Z,11.30
2018-07-21T08:17:30.926Z,11.20
2018-07-21T08:18:37.779Z,11.30
2018-07-21T08:19:44.562Z,10.90
2018-07-21T08:20:51.318Z,11.10
2018-07-21T08:21:58.194Z,10.90
2018-07-21T08:23:04.971Z,10.60
2018-07-21T08:24:12.007Z,10.80
2018-07-21T08:25:18.793Z,10.20
2018-07-21T08:26:25.630Z,9.80
2018-07-21T08:27:32.414Z,12.50
2018-07-21T08:28:39.421Z,11.90
2018-07-21T08:29:46.235Z,12.00
2018-07-21T08:30:53.035Z,12.10
2018-07-21T08:32:00.085Z,12.20
2018-07-21T08:33:06.866Z,11.60
2018-07-21T08:34:13.616Z,12.60
2018-07-21T08:35:20.442Z,11.90
2018-07-21T08:36:27.200Z,12.10
2018-07-21T08:37:33.981Z,10.40
2018-07-21T08:38:40.878Z,11.40
2018-07-21T08:39:47.685Z,12.20
2018-07-21T08:40:54.459Z,11.30
2018-07-21T08:42:01.298Z,10.90
2018-07-21T08:43:08.058Z,10.80
2018-07-21T08:44:14.823Z,11.30
2018-07-21T08:45:21.591Z,10.60
2018-07-21T08:46:28.383Z,11.60
2018-07-21T08:47:35.177Z,11.10
2018-07-21T08:48:41.959Z,11.00
2018-07-21T08:49:48.850Z,12.50
2018-07-21T08:50:55.603Z,10.90
2018-07-21T08:52:02.470Z,10.70
2018-07-21T08:53:09.267Z,10.90
2018-07-21T08:54:15.995Z,11.60
2018-07-21T08:55:22.778Z,11.20
2018-07-21T08:56:29.511Z,11.00
2018-07-21T08:57:36.367Z,11.70
2018-07-21T08:58:43.116Z,11.40
2018-07-21T08:59:49.921Z,11.00
2018-07-21T09:00:56.663Z,12.40
2018-07-21T09:02:03.466Z,11.90
2018-07-21T09:03:10.290Z,12.10
2018-07-21T09:04:17.043Z,11.50
2018-07-21T09:05:23.863Z,10.40
2018-07-21T09:06:30.603Z,11.30
2018-07-21T09:07:37.308Z,11.10
2018-07-21T09:08:44.061Z,10.80
2018-07-21T09:09:50.833Z,11.20
2018-07-21T09:10:57.602Z,11.50
2018-07-21T09:12:04.342Z,11.50
2018-07-21T09:13:11.146Z,11.10
2018-07-21T09:14:18.020Z,11.90
2018-07-21T09:15:24.790Z,10.00
2018-07-21T09:16:31.589Z,10.50
2018-07-21T09:17:38.452Z,10.80
2018-07-21T09:18:45.219Z,10.90
2018-07-21T09:19:51.967Z,10.70
2018-07-21T09:20:58.737Z,11.60
2018-07-21T09:22:05.499Z,10.70
2018-07-21T09:23:12.307Z,11.10
2018-07-21T09:24:19.083Z,11.50
2018-07-21T09:25:25.926Z,10.60
2018-07-21T09:26:32.690Z,10.80
2018-07-21T09:27:39.470Z,10.70
2018-07-21T09:28:46.194Z,11.60
2018-07-21T09:29:53.015Z,11.40
2018-07-21T09:30:59.762Z,11.50
2018-07-21T09:32:06.542Z,11.70
2018-07-21T09:33:13.290Z,10.40
2018-07-21T09:34:20.074Z,11.70
2018-07-21T09:35:26.832Z,10.80
2018-07-21T09:36:33.619Z,11.80
2018-07-21T09:37:40.334Z,11.00
2018-07-21T09:38:47.148Z,10.90
2018-07-21T09:39:53.910Z,10.80
2018-07-21T09:41:00.659Z,10.60
2018-07-21T09:42:07.579Z,9.80
2018-07-21T09:43:14.384Z,11.10
2018-07-21T09:44:21.127Z,11.00
2018-07-21T09:45:28.019Z,10.70
2018-07-21T09:46:34.793Z,11.00
2018-07-21T09:47:41.573Z,10.90
2018-07-21T09:48:48.327Z,11.90
2018-07-21T09:49:55.120Z,10.00
2018-07-21T09:51:01.914Z,10.20
2018-07-21T09:52:08.875Z,9.60
2018-07-21T09:53:15.964Z,9.90
2018-07-21T09:54:22.809Z,10.00
2018-07-21T09:55:29.618Z,9.80
2018-07-21T09:56:36.471Z,10.40
2018-07-21T09:57:43.198Z,10.30
2018-07-21T09:58:49.926Z,10.60
2018-07-21T09:59:56.742Z,9.90
2018-07-21T10:01:03.540Z,9.40
2018-07-21T10:02:10.308Z,9.80
2018-07-21T10:03:17.136Z,9.30
2018-07-21T10:04:23.987Z,9.60
2018-07-21T10:05:30.851Z,9.70
2018-07-21T10:06:37.636Z,9.30
2018-07-21T10:07:44.392Z,9.80
2018-07-21T10:08:51.146Z,8.60
2018-07-21T10:09:57.938Z,9.80
2018-07-21T10:11:04.886Z,9.20
2018-07-21T10:12:11.662Z,9.40
2018-07-21T10:13:18.414Z,9.20
2018-07-21T10:14:25.246Z,9.00
2018-07-21T10:15:32.061Z,9.90
2018-07-21T10:16:38.819Z,9.20
2018-07-21T10:17:45.678Z,9.60
2018-07-21T10:18:52.421Z,9.70
2018-07-21T10:19:59.266Z,9.30
2018-07-21T10:21:06.126Z,10.70
2018-07-21T10:22:12.955Z,9.40
2018-07-21T10:23:19.687Z,10.40
2018-07-21T10:24:26.535Z,10.40
2018-07-21T10:25:33.359Z,9.70
2018-07-21T10:26:40.318Z,9.50
2018-07-21T10:27:47.254Z,9.70
2018-07-21T10:28:54.234Z,9.40
2018-07-21T10:30:01.277Z,9.90
2018-07-21T10:31:08.173Z,9.50
2018-07-21T10:32:15.050Z,10.00
2018-07-21T10:33:21.853Z,8.80
2018-07-21T10:34:28.667Z,8.70
2018-07-21T10:35:35.482Z,8.10
2018-07-21T10:36:42.295Z,7.50
2018-07-21T10:37:49.243Z,6.50
2018-07-21T10:38:56.022Z,7.80
2018-07-21T10:40:02.810Z,7.00
2018-07-21T10:41:09.695Z,7.50
2018-07-21T10:42:16.463Z,7.40
2018-07-21T10:43:23.215Z,7.20
2018-07-21T10:44:29.962Z,7.10
2018-07-21T10:45:36.739Z,7.20
2018-07-21T10:46:43.516Z,7.70
2018-07-21T10:47:50.254Z,7.70
2018-07-21T10:48:57.022Z,7.30
2018-07-21T10:50:03.877Z,7.80
2018-07-21T10:51:10.639Z,7.50
2018-07-21T10:52:17.310Z,7.30
2018-07-21T10:53:24.082Z,6.50
2018-07-21T10:54:30.882Z,7.50
2018-07-21T10:55:37.661Z,7.40
2018-07-21T10:56:44.407Z,7.40
2018-07-21T10:57:51.182Z,7.70
2018-07-21T10:58:57.974Z,7.70
2018-07-21T11:00:04.764Z,7.50
2018-07-21T11:01:11.572Z,7.40
2018-07-21T11:02:18.439Z,7.50
2018-07-21T11:03:25.481Z,7.40
2018-07-21T11:04:32.306Z,7.20
2018-07-21T11:05:39.191Z,7.50
2018-07-21T11:06:45.993Z,7.60
2018-07-21T11:07:52.867Z,7.50
2018-07-21T11:08:59.866Z,7.80
2018-07-21T11:10:06.935Z,7.40
2018-07-21T11:11:13.814Z,7.30
2018-07-21T11:12:20.554Z,7.90
2018-07-21T11:13:27.353Z,7.60
2018-07-21T11:14:34.146Z,7.60
2018-07-21T11:15:40.978Z,7.80
2018-07-21T11:16:47.836Z,7.60
2018-07-21T11:17:54.602Z,8.60
2018-07-21T11:19:01.344Z,8.40
2018-07-21T11:20:08.511Z,8.10
2018-07-21T11:21:15.393Z,7.70
2018-07-21T11:22:22.243Z,7.40
2018-07-21T11:23:29.162Z,7.50
2018-07-21T11:24:35.930Z,7.80
2018-07-21T11:25:42.732Z,7.40
2018-07-21T11:26:49.574Z,7.30
2018-07-21T11:27:56.638Z,7.00
2018-07-21T11:29:03.407Z,7.90
2018-07-21T11:30:10.239Z,7.80
2018-07-21T11:31:17.206Z,8.60
2018-07-21T11:32:24.005Z,8.40
2018-07-21T11:33:31.015Z,8.00
2018-07-21T11:34:37.967Z,8.30
2018-07-21T11:35:44.943Z,7.50
2018-07-21T11:36:51.550Z,8.00
2018-07-21T11:37:58.399Z,8.10
2018-07-21T11:39:05.184Z,7.90
2018-07-21T11:40:12.331Z,7.90
2018-07-21T11:41:19.146Z,7.70
2018-07-21T11:42:25.999Z,7.90
2018-07-21T11:43:32.775Z,8.50
2018-07-21T11:44:39.577Z,8.30
2018-07-21T11:45:46.374Z,9.40
2018-07-21T11:46:53.227Z,9.90
2018-07-21T11:47:59.982Z,9.80
2018-07-21T11:49:06.814Z,9.40
2018-07-21T11:50:13.529Z,9.70
2018-07-21T11:51:20.339Z,10.00
2018-07-21T11:52:27.094Z,9.80
2018-07-21T11:53:34.294Z,9.90
2018-07-21T11:54:40.558Z,9.60
2018-07-21T11:55:47.422Z,9.30
2018-07-21T11:56:54.347Z,8.90
2018-07-21T11:58:01.054Z,9.20
2018-07-21T11:59:07.922Z,9.60
2018-07-21T12:00:14.618Z,9.60
2018-07-21T12:01:21.456Z,10.50
2018-07-21T12:02:29.307Z,9.00
2018-07-21T12:03:35.606Z,9.90
2018-07-21T12:04:42.337Z,9.40
2018-07-21T12:05:49.271Z,9.60
2018-07-21T12:06:56.043Z,9.50
2018-07-21T12:08:02.799Z,10.00
2018-07-21T12:09:09.666Z,9.70
2018-07-21T12:10:16.775Z,10.00
2018-07-21T12:11:23.193Z,9.90
2018-07-21T12:12:30.105Z,9.80
2018-07-21T12:13:37.316Z,9.20
2018-07-21T12:14:44.014Z,8.80
2018-07-21T12:15:50.872Z,9.30
2018-07-21T12:16:57.704Z,9.60
2018-07-21T12:18:04.515Z,9.90
2018-07-21T12:19:11.591Z,9.80
2018-07-21T12:20:18.462Z,9.50
2018-07-21T12:21:25.286Z,9.30
2018-07-21T12:22:32.036Z,8.70
2018-07-21T12:23:38.850Z,9.70
2018-07-21T12:24:45.731Z,10.20
2018-07-21T12:25:52.526Z,9.40
2018-07-21T12:26:59.378Z,9.40
2018-07-21T12:28:06.186Z,8.90
2018-07-21T12:29:12.965Z,9.40
2018-07-21T12:30:19.704Z,10.00
2018-07-21T12:31:26.485Z,9.60
2018-07-21T12:32:33.378Z,9.20
2018-07-21T12:33:40.162Z,9.50
2018-07-21T12:34:47.110Z,9.70
2018-07-21T12:35:53.867Z,8.30
2018-07-21T12:37:00.626Z,9.40
2018-07-21T12:38:07.483Z,8.90
2018-07-21T12:39:14.191Z,10.20
2018-07-21T12:40:20.971Z,9.40
2018-07-21T12:41:27.917Z,9.60
2018-07-21T12:42:34.721Z,9.80
2018-07-21T12:43:41.474Z,8.50
2018-07-21T12:44:48.272Z,9.60
2018-07-21T12:45:55.056Z,9.90
2018-07-21T12:47:01.807Z,9.10
2018-07-21T12:48:08.599Z,9.70
2018-07-21T12:49:15.324Z,10.00
2018-07-21T12:50:22.104Z,9.40
2018-07-21T12:51:28.887Z,9.30
2018-07-21T12:52:35.745Z,9.10
2018-07-21T12:53:42.747Z,9.10
2018-07-21T12:54:49.727Z,9.40
2018-07-21T12:55:56.683Z,8.80
2018-07-21T12:57:03.563Z,9.80
2018-07-21T12:58:10.350Z,9.00
2018-07-21T12:59:17.323Z,9.20
2018-07-21T13:00:24.095Z,8.30
2018-07-21T13:01:30.892Z,8.60
2018-07-21T13:02:37.737Z,8.50
2018-07-21T13:03:44.532Z,8.40
2018-07-21T13:04:51.328Z,8.40
2018-07-21T13:05:58.427Z,8.20
2018-07-21T13:07:04.914Z,7.30
2018-07-21T13:08:12.127Z,7.10
2018-07-21T13:09:18.898Z,8.80
2018-07-21T13:10:25.755Z,7.50
2018-07-21T13:11:32.622Z,7.40
2018-07-21T13:12:39.575Z,8.20
2018-07-21T13:13:46.404Z,7.60
2018-07-21T13:14:53.242Z,7.60
2018-07-21T13:15:59.983Z,7.20
2018-07-21T13:17:06.781Z,7.90
2018-07-21T13:18:13.569Z,7.30
2018-07-21T13:19:20.478Z,7.60
2018-07-21T13:20:27.266Z,7.20
2018-07-21T13:21:34.187Z,6.90
2018-07-21T13:22:41.146Z,7.00
2018-07-21T13:23:47.950Z,7.50
2018-07-21T13:24:54.714Z,8.10
2018-07-21T13:26:01.471Z,5.70
2018-07-21T13:27:08.380Z,5.70
2018-07-21T13:28:15.133Z,5.70
2018-07-21T13:29:21.885Z,5.10
2018-07-21T13:30:28.692Z,5.10
2018-07-21T13:31:35.563Z,5.10
2018-07-21T13:32:42.343Z,4.80
2018-07-21T13:33:49.094Z,5.00
2018-07-21T13:34:55.914Z,4.60
2018-07-21T13:36:02.681Z,4.90
2018-07-21T13:37:09.491Z,5.20
2018-07-21T13:38:16.366Z,4.90
2018-07-21T13:39:23.134Z,5.10
2018-07-21T13:40:29.874Z,5.60
2018-07-21T13:41:36.742Z,4.70
2018-07-21T13:42:43.554Z,5.00
2018-07-21T13:43:50.289Z,4.10
2018-07-21T13:44:57.177Z,4.20
2018-07-21T13:46:03.950Z,4.20
2018-07-21T13:47:10.724Z,3.80
2018-07-21T13:48:17.482Z,4.20
2018-07-21T13:49:24.260Z,4.50
2018-07-21T13:50:30.993Z,4.00
2018-07-21T13:51:37.717Z,4.10
2018-07-21T13:52:44.565Z,3.70
2018-07-21T13:53:51.380Z,4.20
2018-07-21T13:54:58.411Z,4.60
2018-07-21T13:56:05.154Z,4.90
2018-07-21T13:57:12.047Z,4.20
2018-07-21T13:58:18.914Z,4.50
2018-07-21T13:59:25.661Z,4.10
2018-07-21T14:00:32.391Z,4.50
2018-07-21T14:01:39.176Z,4.40
2018-07-21T14:02:46.058Z,4.60
2018-07-21T14:03:52.801Z,4.40
2018-07-21T14:04:59.582Z,4.80
2018-07-21T14:06:06.537Z,4.70
2018-07-21T14:07:13.359Z,4.40
2018-07-21T14:08:20.147Z,4.90
2018-07-21T14:09:27.046Z,4.90
2018-07-21T14:10:33.798Z,5.40
2018-07-21T14:11:40.560Z,5.10
2018-07-21T14:12:47.410Z,4.70
2018-07-21T14:13:54.151Z,4.70
2018-07-21T14:15:00.963Z,4.90
2018-07-21T14:16:08.035Z,5.60
2018-07-21T14:17:14.781Z,5.00
2018-07-21T14:18:21.658Z,4.70
2018-07-21T14:19:28.450Z,5.20
2018-07-21T14:20:35.226Z,5.60
2018-07-21T14:21:42.110Z,6.00
2018-07-21T14:22:48.898Z,5.60
2018-07-21T14:23:55.728Z,5.90
2018-07-21T14:25:02.568Z,5.40
2018-07-21T14:26:09.404Z,5.50
2018-07-21T14:27:16.144Z,5.50
2018-07-21T14:28:24.883Z,5.50
2018-07-21T14:29:30.266Z,5.40
2018-07-21T14:30:37.039Z,5.10
2018-07-21T14:31:43.781Z,6.20
2018-07-21T14:32:50.531Z,5.20
2018-07-21T14:33:57.297Z,5.80
2018-07-21T14:35:04.043Z,6.00
2018-07-21T14:36:11.226Z,6.10
2018-07-21T14:37:18.134Z,6.20
2018-07-21T14:38:24.926Z,7.20
2018-07-21T14:39:31.667Z,6.40